createdAt,value
2019-06-15T00:00:01.351Z,68.95
2019-06-15T00:02:29.203Z,69.10
2019-06-15T00:04:56.901Z,69.35
2019-06-15T00:07:24.560Z,69.03
2019-06-15T00:09:52.224Z,68.91
2019-06-15T00:12:19.900Z,66.69
2019-06-15T00:14:47.610Z,66.09
2019-06-15T00:17:15.290Z,66.20
2019-06-15T00:19:42.947Z,66.68
2019-06-15T00:22:10.605Z,66.22
2019-06-15T00:24:38.278Z,67.35
2019-06-15T00:27:05.963Z,66.70
2019-06-15T00:29:33.652Z,67.23
2019-06-15T00:32:01.379Z,67.55
2019-06-15T00:34:29.043Z,67.68
2019-06-15T00:36:56.853Z,67.70
2019-06-15T00:39:24.497Z,68.70
2019-06-15T00:41:52.155Z,68.10
2019-06-15T00:44:19.832Z,69.05
2019-06-15T00:46:47.555Z,68.11
2019-06-15T00:49:15.210Z,68.13
2019-06-15T00:51:42.869Z,69.06
2019-06-15T00:54:10.537Z,68.88
2019-06-15T00:56:38.230Z,70.78
2019-06-15T00:59:05.960Z,70.00
2019-06-15T01:01:35.515Z,70.65
2019-06-15T01:04:03.513Z,71.25
2019-06-15T01:06:31.147Z,70.57
2019-06-15T01:08:58.805Z,70.36
2019-06-15T01:11:26.465Z,69.86
2019-06-15T01:13:54.132Z,70.15
2019-06-15T01:16:21.792Z,69.96
2019-06-15T01:18:49.454Z,69.89
2019-06-15T01:21:17.114Z,69.40
2019-06-15T01:23:44.764Z,69.22
2019-06-15T01:26:12.423Z,69.38
2019-06-15T01:28:40.088Z,69.13
2019-06-15T01:31:07.753Z,68.91
2019-06-15T01:33:35.434Z,68.44
2019-06-15T01:36:03.148Z,67.94
2019-06-15T01:38:30.808Z,67.54
2019-06-15T01:40:58.488Z,66.90
2019-06-15T01:43:26.147Z,67.18
2019-06-15T01:45:53.826Z,66.55
2019-06-15T01:48:21.484Z,66.58
2019-06-15T01:50:49.140Z,66.57
2019-06-15T01:53:16.881Z,66.03
2019-06-15T01:55:44.531Z,65.58
2019-06-15T01:58:12.184Z,65.22
2019-06-15T02:00:39.838Z,65.45
2019-06-15T02:03:07.500Z,65.44
2019-06-15T02:05:35.160Z,65.58
2019-06-15T02:08:02.812Z,65.21
2019-06-15T02:10:30.475Z,65.21
2019-06-15T02:12:58.222Z,65.06
2019-06-15T02:15:25.973Z,65.18
2019-06-15T02:17:53.636Z,65.06
2019-06-15T02:20:21.311Z,65.21
2019-06-15T02:22:48.956Z,65.34
2019-06-15T02:25:16.627Z,65.35
2019-06-15T02:27:44.280Z,65.60
2019-06-15T02:30:11.944Z,65.74
2019-06-15T02:32:39.610Z,65.68
2019-06-15T02:35:07.268Z,65.55
2019-06-15T02:37:35.071Z,65.77
2019-06-15T02:40:02.742Z,65.80
2019-06-15T02:42:30.414Z,65.90
2019-06-15T02:44:58.134Z,65.61
2019-06-15T02:47:25.792Z,65.53
2019-06-15T02:49:53.452Z,65.68
2019-06-15T02:52:21.123Z,65.74
2019-06-15T02:54:48.796Z,65.54
2019-06-15T02:57:16.455Z,65.75
2019-06-15T02:59:44.123Z,65.58
2019-06-15T03:02:11.787Z,65.07
2019-06-15T03:04:39.444Z,65.36
2019-06-15T03:07:07.145Z,65.92
2019-06-15T03:09:35.380Z,65.92
2019-06-15T03:12:03.033Z,65.98
2019-06-15T03:14:30.702Z,65.89
2019-06-15T03:16:58.392Z,65.80
2019-06-15T03:19:26.253Z,65.62
2019-06-15T03:21:53.971Z,65.59
2019-06-15T03:24:21.671Z,66.04
2019-06-15T03:26:49.344Z,66.19
2019-06-15T03:29:17.004Z,65.87
2019-06-15T03:31:44.665Z,65.87
2019-06-15T03:34:12.397Z,65.90
2019-06-15T03:36:40.055Z,65.99
2019-06-15T03:39:08.102Z,66.19
2019-06-15T03:41:35.760Z,66.19
2019-06-15T03:44:03.425Z,66.17
2019-06-15T03:46:31.139Z,65.97
2019-06-15T03:48:58.801Z,66.19
2019-06-15T03:51:26.451Z,65.89
2019-06-15T03:53:54.143Z,66.25
2019-06-15T03:56:22.393Z,66.06
2019-06-15T03:58:50.212Z,66.08
2019-06-15T04:01:17.947Z,66.28
2019-06-15T04:03:45.613Z,66.12
2019-06-15T04:06:13.270Z,66.45
2019-06-15T04:08:40.935Z,66.14
2019-06-15T04:11:08.593Z,66.12
2019-06-15T04:13:36.257Z,66.00
2019-06-15T04:16:03.908Z,65.86
2019-06-15T04:18:31.570Z,64.92
2019-06-15T04:20:59.232Z,64.37
2019-06-15T04:23:26.899Z,64.32
2019-06-15T04:25:54.547Z,63.26
2019-06-15T04:28:22.206Z,63.81
2019-06-15T04:30:49.867Z,64.49
2019-06-15T04:33:17.544Z,64.78
2019-06-15T04:35:45.200Z,65.12
2019-06-15T04:38:12.863Z,65.08
2019-06-15T04:40:40.525Z,65.17
2019-06-15T04:43:08.180Z,64.46
2019-06-15T04:45:35.839Z,64.19
2019-06-15T04:48:03.493Z,64.54
2019-06-15T04:50:31.258Z,64.23
2019-06-15T04:52:58.928Z,63.19
2019-06-15T04:55:26.579Z,61.81
2019-06-15T04:57:54.265Z,59.97
2019-06-15T05:00:21.997Z,58.73
2019-06-15T05:02:49.733Z,58.41
2019-06-15T05:05:17.395Z,58.79
2019-06-15T05:07:45.135Z,57.14
2019-06-15T05:10:12.809Z,57.29
2019-06-15T05:12:40.466Z,55.88
2019-06-15T05:15:08.126Z,55.91
2019-06-15T05:17:35.770Z,55.88
2019-06-15T05:20:03.452Z,55.67
2019-06-15T05:22:31.098Z,55.65
2019-06-15T05:24:58.759Z,55.21
2019-06-15T05:27:26.683Z,54.36
2019-06-15T05:29:56.585Z,54.71
2019-06-15T05:32:23.739Z,55.02
2019-06-15T05:34:51.585Z,56.13
2019-06-15T05:37:19.455Z,57.18
2019-06-15T05:39:47.197Z,57.73
2019-06-15T05:42:14.861Z,57.62
2019-06-15T05:44:42.525Z,56.38
2019-06-15T05:47:10.220Z,56.29
2019-06-15T05:49:37.973Z,54.83
2019-06-15T05:52:05.653Z,53.77
2019-06-15T05:54:33.313Z,52.52
2019-06-15T05:57:00.979Z,52.57
2019-06-15T05:59:28.631Z,52.14
2019-06-15T06:01:56.296Z,51.73
2019-06-15T06:04:23.964Z,52.64
2019-06-15T06:06:51.616Z,52.36
2019-06-15T06:09:19.270Z,51.92
2019-06-15T06:11:46.942Z,51.87
2019-06-15T06:14:14.603Z,50.86
2019-06-15T06:16:42.320Z,51.57
2019-06-15T06:19:10.090Z,51.92
2019-06-15T06:21:37.750Z,52.08
2019-06-15T06:24:05.407Z,52.60
2019-06-15T06:26:33.073Z,54.16
2019-06-15T06:29:00.722Z,54.50
2019-06-15T06:31:28.403Z,55.34
2019-06-15T06:33:56.408Z,55.12
2019-06-15T06:36:24.068Z,54.83
2019-06-15T06:38:51.724Z,54.21
2019-06-15T06:41:19.385Z,54.04
2019-06-15T06:43:47.044Z,52.69
2019-06-15T06:46:14.699Z,53.48
2019-06-15T06:48:42.356Z,53.22
2019-06-15T06:51:10.369Z,53.38
2019-06-15T06:53:38.056Z,52.89
2019-06-15T06:56:05.744Z,52.39
2019-06-15T06:58:33.389Z,52.51
2019-06-15T07:01:01.099Z,54.30
2019-06-15T07:03:28.762Z,53.59
2019-06-15T07:05:56.419Z,53.49
2019-06-15T07:08:24.103Z,52.71
2019-06-15T07:10:51.758Z,51.53
2019-06-15T07:13:19.412Z,51.83
2019-06-15T07:15:47.089Z,51.53
2019-06-15T07:18:14.739Z,51.57
2019-06-15T07:20:43.631Z,50.16
2019-06-15T07:23:11.384Z,50.43
2019-06-15T07:25:39.061Z,50.29
2019-06-15T07:28:08.282Z,51.23
2019-06-15T07:30:36.096Z,50.11
2019-06-15T07:33:04.067Z,50.40
2019-06-15T07:35:31.785Z,49.88
2019-06-15T07:37:59.463Z,49.95
2019-06-15T07:40:27.121Z,48.68
2019-06-15T07:42:54.870Z,47.91
2019-06-15T07:45:22.570Z,48.16
2019-06-15T07:47:50.236Z,48.10
2019-06-15T07:50:17.892Z,49.24
2019-06-15T07:52:45.708Z,50.31
2019-06-15T07:55:13.570Z,49.75
2019-06-15T07:57:41.274Z,51.50
2019-06-15T08:00:08.938Z,51.04
2019-06-15T08:02:36.601Z,50.18
2019-06-15T08:05:04.332Z,50.81
2019-06-15T08:07:32.002Z,50.24
2019-06-15T08:09:59.651Z,50.25
2019-06-15T08:12:27.347Z,48.88
2019-06-15T08:14:55.016Z,48.61
2019-06-15T08:17:22.679Z,47.69
2019-06-15T08:19:50.344Z,48.34
2019-06-15T08:22:18.024Z,48.38
2019-06-15T08:24:45.681Z,47.07
2019-06-15T08:27:13.399Z,48.38
2019-06-15T08:29:41.139Z,48.03
2019-06-15T08:32:08.905Z,48.11
2019-06-15T08:34:36.564Z,47.51
2019-06-15T08:37:04.229Z,45.71
2019-06-15T08:39:31.900Z,46.48
2019-06-15T08:41:59.551Z,46.82
2019-06-15T08:44:27.209Z,45.86
2019-06-15T08:46:54.904Z,45.32
2019-06-15T08:49:22.609Z,45.96
2019-06-15T08:51:50.364Z,45.83
2019-06-15T08:54:18.078Z,45.03
2019-06-15T08:56:45.801Z,44.39
2019-06-15T08:59:13.463Z,42.75
2019-06-15T09:01:41.135Z,42.47
2019-06-15T09:04:08.812Z,42.97
2019-06-15T09:06:36.464Z,42.68
2019-06-15T09:09:04.180Z,41.10
2019-06-15T09:11:31.905Z,42.26
2019-06-15T09:13:59.673Z,42.17
2019-06-15T09:16:27.325Z,41.17
2019-06-15T09:18:57.471Z,40.68
2019-06-15T09:21:24.382Z,41.51
2019-06-15T09:23:52.049Z,41.10
2019-06-15T09:26:19.721Z,41.07
2019-06-15T09:28:47.376Z,40.93
2019-06-15T09:31:15.136Z,40.83
2019-06-15T09:33:42.823Z,40.74
2019-06-15T09:36:10.501Z,41.21
2019-06-15T09:38:38.179Z,40.23
2019-06-15T09:41:06.424Z,40.90
2019-06-15T09:43:34.080Z,40.09
2019-06-15T09:46:01.747Z,39.85
2019-06-15T09:48:29.413Z,39.98
2019-06-15T09:50:57.069Z,40.42
2019-06-15T09:53:24.731Z,40.65
2019-06-15T09:55:52.396Z,40.44
2019-06-15T09:58:20.171Z,37.23
2019-06-15T10:00:47.861Z,37.86
2019-06-15T10:03:15.623Z,37.49
2019-06-15T10:05:43.345Z,38.25
2019-06-15T10:08:11.023Z,37.96
2019-06-15T10:10:38.758Z,38.34
2019-06-15T10:13:06.408Z,36.51
2019-06-15T10:15:34.060Z,35.85
2019-06-15T10:18:01.716Z,34.99
2019-06-15T10:20:29.405Z,34.51
2019-06-15T10:22:57.061Z,34.06
2019-06-15T10:25:24.752Z,35.08
2019-06-15T10:27:52.460Z,33.19
2019-06-15T10:30:20.115Z,32.40
2019-06-15T10:32:47.761Z,31.41
2019-06-15T10:35:15.437Z,34.26
2019-06-15T10:37:43.090Z,32.46
2019-06-15T10:40:10.836Z,34.97
2019-06-15T10:42:38.494Z,34.91
2019-06-15T10:45:06.214Z,33.92
2019-06-15T10:47:33.880Z,33.81
2019-06-15T10:50:01.621Z,34.09
2019-06-15T10:52:29.403Z,32.44
2019-06-15T10:54:57.064Z,34.68
2019-06-15T10:57:24.716Z,33.51
2019-06-15T10:59:57.311Z,35.24
2019-06-15T11:02:21.727Z,34.21
2019-06-15T11:04:49.448Z,32.36
2019-06-15T11:07:17.205Z,33.18
2019-06-15T11:09:44.864Z,34.98
2019-06-15T11:12:12.521Z,32.69
2019-06-15T11:14:40.169Z,33.07
2019-06-15T11:17:07.830Z,32.02
2019-06-15T11:19:35.514Z,31.88
2019-06-15T11:22:03.239Z,32.01
2019-06-15T11:24:30.928Z,31.65
2019-06-15T11:26:58.658Z,30.94
2019-06-15T11:29:26.302Z,31.77
2019-06-15T11:31:53.954Z,32.46
2019-06-15T11:34:21.619Z,32.36
2019-06-15T11:36:49.356Z,32.42
2019-06-15T11:39:17.013Z,30.92
2019-06-15T11:41:44.786Z,31.07
2019-06-15T11:44:12.460Z,31.19
2019-06-15T11:46:40.133Z,31.98
2019-06-15T11:49:07.846Z,33.61
2019-06-15T11:51:35.572Z,33.21
2019-06-15T11:54:03.209Z,31.29
2019-06-15T11:56:30.860Z,33.53
2019-06-15T11:58:58.525Z,32.89
2019-06-15T12:01:26.196Z,32.96
2019-06-15T12:03:53.922Z,33.75
2019-06-15T12:06:21.585Z,35.04
2019-06-15T12:08:49.331Z,33.54
2019-06-15T12:11:16.988Z,32.82
2019-06-15T12:13:44.646Z,33.30
2019-06-15T12:16:12.316Z,33.07
2019-06-15T12:18:39.967Z,31.91
2019-06-15T12:21:07.627Z,29.55
2019-06-15T12:23:35.290Z,30.57
2019-06-15T12:26:02.986Z,31.25
2019-06-15T12:28:30.692Z,31.91
2019-06-15T12:30:58.349Z,32.38
2019-06-15T12:33:25.994Z,31.84
2019-06-15T12:35:53.680Z,32.67
2019-06-15T12:38:21.344Z,31.52
2019-06-15T12:40:49.067Z,31.73
2019-06-15T12:43:16.731Z,30.64
2019-06-15T12:45:44.389Z,27.84
2019-06-15T12:48:12.063Z,29.20
2019-06-15T12:50:39.726Z,31.37
2019-06-15T12:53:07.376Z,30.56
2019-06-15T12:55:35.035Z,30.80
2019-06-15T12:58:02.698Z,31.33
2019-06-15T13:00:30.351Z,30.70
2019-06-15T13:02:58.000Z,30.62
2019-06-15T13:05:25.655Z,28.55
2019-06-15T13:07:53.312Z,28.40
2019-06-15T13:10:20.975Z,27.80
2019-06-15T13:12:48.708Z,28.53
2019-06-15T13:15:16.444Z,29.21
2019-06-15T13:17:44.106Z,30.50
2019-06-15T13:20:11.773Z,29.40
2019-06-15T13:22:39.499Z,29.94
2019-06-15T13:25:07.153Z,30.77
2019-06-15T13:27:34.803Z,30.82
2019-06-15T13:30:02.509Z,30.72
2019-06-15T13:32:30.206Z,29.99
2019-06-15T13:34:57.874Z,29.60
2019-06-15T13:37:25.551Z,30.60
2019-06-15T13:39:53.203Z,31.61
2019-06-15T13:42:20.865Z,32.54
2019-06-15T13:44:48.620Z,32.46
2019-06-15T13:47:16.284Z,32.57
2019-06-15T13:49:43.946Z,32.89
2019-06-15T13:52:11.595Z,32.31
2019-06-15T13:54:39.262Z,29.69
2019-06-15T13:57:06.921Z,30.67
2019-06-15T13:59:34.570Z,28.47
2019-06-15T14:02:02.239Z,28.56
2019-06-15T14:04:29.893Z,28.96
2019-06-15T14:06:57.623Z,27.86
2019-06-15T14:09:25.286Z,28.93
2019-06-15T14:11:52.934Z,29.82
2019-06-15T14:14:20.613Z,31.01
2019-06-15T14:16:48.287Z,29.98
2019-06-15T14:19:16.044Z,30.43
2019-06-15T14:21:43.735Z,30.27
2019-06-15T14:24:11.390Z,29.83
2019-06-15T14:26:39.044Z,31.32
2019-06-15T14:29:06.694Z,31.45
2019-06-15T14:31:46.658Z,31.60
2019-06-15T14:34:03.707Z,32.24
2019-06-15T14:36:31.351Z,33.34
2019-06-15T14:38:59.003Z,34.10
2019-06-15T14:41:26.727Z,34.83
2019-06-15T14:43:54.460Z,35.56
2019-06-15T14:46:22.111Z,35.23
2019-06-15T14:48:49.762Z,35.57
2019-06-15T14:51:17.403Z,36.06
2019-06-15T14:53:49.872Z,36.97
2019-06-15T14:56:16.038Z,35.55
2019-06-15T14:58:45.783Z,35.52
2019-06-15T15:01:13.215Z,36.38
2019-06-15T15:03:40.876Z,35.93
2019-06-15T15:06:08.520Z,36.69
2019-06-15T15:08:36.785Z,36.58
2019-06-15T15:11:06.580Z,37.09
2019-06-15T15:13:36.404Z,39.69
2019-06-15T15:16:03.411Z,40.90
2019-06-15T15:18:31.081Z,40.67
2019-06-15T15:20:58.725Z,40.64
2019-06-15T15:23:26.389Z,41.25
2019-06-15T15:25:54.043Z,40.77
2019-06-15T15:28:21.766Z,41.19
2019-06-15T15:30:49.561Z,40.57
2019-06-15T15:33:17.214Z,41.10
2019-06-15T15:35:46.625Z,39.70
2019-06-15T15:38:14.243Z,40.59
2019-06-15T15:40:41.917Z,41.01
2019-06-15T15:43:09.563Z,40.78
2019-06-15T15:45:37.328Z,41.30
2019-06-15T15:48:06.832Z,40.77
2019-06-15T15:50:36.811Z,40.36
2019-06-15T15:53:03.764Z,41.16
2019-06-15T15:55:31.440Z,41.37
2019-06-15T15:57:59.091Z,41.29
2019-06-15T16:00:27.066Z,41.91
2019-06-15T16:02:56.627Z,41.64
2019-06-15T16:05:26.445Z,41.60
2019-06-15T16:07:53.480Z,41.32
2019-06-15T16:10:21.141Z,40.77
2019-06-15T16:12:48.809Z,40.74
2019-06-15T16:15:16.464Z,40.38
2019-06-15T16:17:46.342Z,39.80
2019-06-15T16:20:13.481Z,40.45
2019-06-15T16:22:41.135Z,40.41
2019-06-15T16:25:08.786Z,39.51
2019-06-15T16:27:37.025Z,40.48
2019-06-15T16:30:06.473Z,40.42
2019-06-15T16:32:36.997Z,39.46
2019-06-15T16:35:03.766Z,40.89
2019-06-15T16:37:31.411Z,39.94
2019-06-15T16:39:59.148Z,39.57
2019-06-15T16:42:26.892Z,39.20
2019-06-15T16:44:56.137Z,39.37
2019-06-15T16:47:23.987Z,39.99
2019-06-15T16:49:51.639Z,40.28
2019-06-15T16:52:19.304Z,39.62
2019-06-15T16:54:47.110Z,40.31
2019-06-15T16:57:16.097Z,39.92
2019-06-15T16:59:43.945Z,39.11
2019-06-15T17:02:11.635Z,39.33
2019-06-15T17:04:39.303Z,39.83
2019-06-15T17:07:07.270Z,40.06
2019-06-15T17:09:36.254Z,39.98
2019-06-15T17:12:06.426Z,40.11
2019-06-15T17:14:36.268Z,39.65
2019-06-15T17:17:05.367Z,39.14
2019-06-15T17:19:32.207Z,38.43
2019-06-15T17:22:13.793Z,39.59
2019-06-15T17:24:29.232Z,39.67
2019-06-15T17:26:57.119Z,38.65
2019-06-15T17:29:24.929Z,38.27
2019-06-15T17:31:52.592Z,38.45
2019-06-15T17:34:20.244Z,38.37
2019-06-15T17:36:47.905Z,38.67
2019-06-15T17:39:17.117Z,38.23
2019-06-15T17:41:47.180Z,39.07
2019-06-15T17:44:16.668Z,39.73
2019-06-15T17:46:46.202Z,39.06
2019-06-15T17:49:13.370Z,38.55
2019-06-15T17:51:41.047Z,38.99
2019-06-15T17:54:08.766Z,39.02
2019-06-15T17:56:36.723Z,38.52
2019-06-15T17:59:06.480Z,38.30
2019-06-15T18:01:36.284Z,38.66
2019-06-15T18:04:03.321Z,38.34
2019-06-15T18:06:30.979Z,37.45
2019-06-15T18:08:58.639Z,37.94
2019-06-15T18:11:26.430Z,38.51
2019-06-15T18:13:56.469Z,38.15
2019-06-15T18:16:26.422Z,37.25
2019-06-15T18:18:52.958Z,38.94
2019-06-15T18:21:20.608Z,38.13
2019-06-15T18:23:48.274Z,38.06
2019-06-15T18:26:16.294Z,38.60
2019-06-15T18:28:44.064Z,38.26
2019-06-15T18:31:11.718Z,38.45
2019-06-15T18:33:39.373Z,38.62
2019-06-15T18:36:07.025Z,39.38
2019-06-15T18:38:36.993Z,39.57
2019-06-15T18:41:04.051Z,39.59
2019-06-15T18:43:31.715Z,39.56
2019-06-15T18:45:59.365Z,40.33
2019-06-15T18:48:27.038Z,41.22
2019-06-15T18:50:56.009Z,41.42
2019-06-15T18:53:24.000Z,41.36
2019-06-15T18:55:51.649Z,40.60
2019-06-15T18:58:19.311Z,41.36
2019-06-15T19:00:46.973Z,41.06
2019-06-15T19:03:16.765Z,41.15
2019-06-15T19:05:44.059Z,41.02
2019-06-15T19:08:11.728Z,41.23
2019-06-15T19:10:39.395Z,41.59
2019-06-15T19:13:07.618Z,42.11
2019-06-15T19:15:37.253Z,41.86
2019-06-15T19:18:07.549Z,42.20
2019-06-15T19:20:36.862Z,42.21
2019-06-15T19:23:06.561Z,42.20
2019-06-15T19:25:33.011Z,42.70
2019-06-15T19:28:00.657Z,42.92
2019-06-15T19:30:28.320Z,42.69
2019-06-15T19:32:56.609Z,43.39
2019-06-15T19:35:26.337Z,43.75
2019-06-15T19:37:56.288Z,43.83
2019-06-15T19:40:23.234Z,44.00
2019-06-15T19:42:50.886Z,44.21
2019-06-15T19:45:18.539Z,44.56
2019-06-15T19:47:46.961Z,45.04
2019-06-15T19:50:16.611Z,44.84
2019-06-15T19:52:46.147Z,45.43
2019-06-15T19:55:13.553Z,44.73
2019-06-15T19:57:41.217Z,44.97
2019-06-15T20:00:08.871Z,46.95
2019-06-15T20:02:36.581Z,46.79
2019-06-15T20:05:04.360Z,46.50
2019-06-15T20:07:32.017Z,47.21
2019-06-15T20:09:59.753Z,47.41
2019-06-15T20:12:27.519Z,47.65
2019-06-15T20:14:56.723Z,48.25
2019-06-15T20:17:24.525Z,47.98
2019-06-15T20:19:52.184Z,47.82
2019-06-15T20:22:19.840Z,47.91
2019-06-15T20:24:47.604Z,48.39
2019-06-15T20:27:16.471Z,47.47
2019-06-15T20:29:44.286Z,47.09
2019-06-15T20:32:11.938Z,47.74
2019-06-15T20:34:39.586Z,48.26
2019-06-15T20:37:07.268Z,48.11
2019-06-15T20:39:36.347Z,48.08
2019-06-15T20:42:04.326Z,48.63
2019-06-15T20:44:31.954Z,49.53
2019-06-15T20:46:59.636Z,49.14
2019-06-15T20:49:27.360Z,49.28
2019-06-15T20:51:56.156Z,49.70
2019-06-15T20:54:23.954Z,49.68
2019-06-15T20:56:51.640Z,49.74
2019-06-15T20:59:19.292Z,50.15
2019-06-15T21:01:46.960Z,50.06
2019-06-15T21:04:16.159Z,50.65
2019-06-15T21:06:44.001Z,50.25
2019-06-15T21:09:11.711Z,50.73
2019-06-15T21:11:39.436Z,49.95
2019-06-15T21:14:07.090Z,50.59
2019-06-15T21:16:36.941Z,50.91
2019-06-15T21:19:06.345Z,51.03
2019-06-15T21:21:33.531Z,51.07
2019-06-15T21:24:01.278Z,51.83
2019-06-15T21:26:28.934Z,52.00
2019-06-15T21:28:56.677Z,52.43
2019-06-15T21:31:26.217Z,52.47
2019-06-15T21:33:56.010Z,53.52
2019-06-15T21:36:23.144Z,53.90
2019-06-15T21:38:50.797Z,54.67
2019-06-15T21:41:18.446Z,54.60
2019-06-15T21:43:47.200Z,54.92
2019-06-15T21:46:16.821Z,55.00
2019-06-15T21:48:46.758Z,55.67
2019-06-15T21:51:16.434Z,55.85
2019-06-15T21:53:43.117Z,56.29
2019-06-15T21:56:10.847Z,57.92
2019-06-15T21:58:38.514Z,58.08
2019-06-15T22:01:06.369Z,59.12
2019-06-15T22:03:36.642Z,58.51
2019-06-15T22:06:06.260Z,58.90
2019-06-15T22:08:32.881Z,58.71
2019-06-15T22:11:00.527Z,58.87
2019-06-15T22:13:28.195Z,59.50
2019-06-15T22:15:56.175Z,59.70
2019-06-15T22:18:23.983Z,60.08
2019-06-15T22:20:51.640Z,60.65
2019-06-15T22:23:19.300Z,59.61
2019-06-15T22:25:46.953Z,59.96
2019-06-15T22:28:16.471Z,59.81
2019-06-15T22:30:46.002Z,60.39
2019-06-15T22:33:13.317Z,59.93
2019-06-15T22:35:40.972Z,59.72
2019-06-15T22:38:08.618Z,59.44
2019-06-15T22:40:36.452Z,59.96
2019-06-15T22:43:04.293Z,59.72
2019-06-15T22:45:31.952Z,58.66
2019-06-15T22:47:59.613Z,59.12
2019-06-15T22:50:27.291Z,59.35
2019-06-15T22:52:56.476Z,58.37
2019-06-15T22:55:26.101Z,58.53
2019-06-15T22:57:53.613Z,58.85
2019-06-15T23:00:21.372Z,58.51
2019-06-15T23:02:49.015Z,57.89
2019-06-15T23:05:17.200Z,57.42
2019-06-15T23:07:47.289Z,58.34
2019-06-15T23:10:16.536Z,58.27
2019-06-15T23:12:46.237Z,59.46
2019-06-15T23:15:13.107Z,58.94
2019-06-15T23:17:40.795Z,58.92
2019-06-15T23:20:08.491Z,59.08
2019-06-15T23:22:36.144Z,59.46
2019-06-15T23:25:05.920Z,59.17
2019-06-15T23:27:33.164Z,60.22
2019-06-15T23:30:00.827Z,60.50
2019-06-15T23:32:28.479Z,59.74
2019-06-15T23:34:56.506Z,59.78
2019-06-15T23:37:26.508Z,59.62
2019-06-15T23:39:59.072Z,59.92
2019-06-15T23:42:27.278Z,60.27
2019-06-15T23:44:56.117Z,60.05
2019-06-15T23:47:26.226Z,59.95
2019-06-15T23:49:53.284Z,60.03
2019-06-15T23:52:20.944Z,59.37
2019-06-15T23:54:48.583Z,60.43
2019-06-15T23:57:16.247Z,59.46
2019-06-15T23:59:46.442Z,59.44
